Time;durP1;ratioP1;P1;durP2;ratioP2;P2;SDS_P1;SDS_P2;PMS_P1;PMS_P2;Temp;Humidity;BMP_temperature;BMP_pressure;BME280_temperature;BME280_humidity;BME280_pressure;Samples;Min_cycle;Max_cycle;Signal;HPM_P1;HPM_P2
2021/12/31 00:00:17;;;;;;;;;15.75;15.50;;;;;11.30;97.40;101276.16;5057441;28;45380;-71
2021/12/31 00:02:42;;;;;;;;;30.25;18.75;;;;;11.28;97.65;101279.75;5040295;28;45398;-71
2021/12/31 00:05:09;;;;;;;;;23.00;19.00;;;;;11.23;97.53;101270.22;5058595;28;45530;-71
2021/12/31 00:07:34;;;;;;;;;19.75;16.75;;;;;11.21;97.65;101271.19;5059085;28;46980;-64
2021/12/31 00:10:01;;;;;;;;;21.75;19.50;;;;;11.19;97.61;101280.91;5058721;28;45327;-69
2021/12/31 00:12:31;;;;;;;;;20.50;18.50;;;;;11.15;98.26;101266.97;5060064;28;45312;-67
2021/12/31 00:14:57;;;;;;;;;23.25;18.75;;;;;11.12;98.09;101264.44;5059017;28;45332;-68
2021/12/31 00:17:23;;;;;;;;;23.25;19.50;;;;;11.09;97.87;101264.53;5057224;28;45365;-71
2021/12/31 00:19:58;;;;;;;;;24.25;21.75;;;;;11.09;98.88;101261.91;5057698;28;45423;-62
2021/12/31 00:24:52;;;;;;;;;23.25;22.25;;;;;11.05;98.40;101258.47;5058491;28;45224;-66
2021/12/31 00:27:18;;;;;;;;;22.75;20.00;;;;;11.03;98.22;101260.31;5057696;28;46324;-66
2021/12/31 00:29:43;;;;;;;;;27.00;20.25;;;;;11.02;98.09;101255.09;5057455;28;45268;-67
2021/12/31 00:32:08;;;;;;;;;20.75;19.25;;;;;10.98;98.55;101256.94;5058253;28;45223;-72
2021/12/31 00:34:34;;;;;;;;;24.00;20.00;;;;;10.96;98.35;101240.34;5059593;28;45216;-73
2021/12/31 00:36:59;;;;;;;;;22.25;16.75;;;;;10.95;98.44;101247.41;5060322;28;45289;-70
2021/12/31 00:39:24;;;;;;;;;21.25;17.75;;;;;10.91;98.62;101235.25;5059225;28;45406;-72
2021/12/31 00:41:50;;;;;;;;;22.75;19.50;;;;;10.93;98.34;101246.59;5058819;28;45439;-65
2021/12/31 00:44:15;;;;;;;;;16.25;15.75;;;;;10.91;98.75;101240.50;5062586;28;45555;-73
2021/12/31 00:46:41;;;;;;;;;22.75;19.25;;;;;10.87;98.30;101241.50;5057761;28;46541;-74
2021/12/31 00:49:06;;;;;;;;;20.00;19.00;;;;;10.82;98.61;101249.53;5058292;28;45252;-63
2021/12/31 00:51:33;;;;;;;;;23.25;17.25;;;;;10.87;98.71;101254.66;5057953;28;45521;-68
2021/12/31 00:53:59;;;;;;;;;37.25;29.25;;;;;10.87;98.33;101259.06;5057290;28;45660;-61
2021/12/31 00:56:24;;;;;;;;;21.25;18.25;;;;;10.85;98.57;101256.50;5059259;28;46037;-74
2021/12/31 00:58:50;;;;;;;;;18.50;17.25;;;;;10.84;99.05;101253.88;5038739;28;45419;-61
2021/12/31 01:01:20;;;;;;;;;23.75;18.00;;;;;10.83;98.38;101255.66;5055989;28;45237;-66
2021/12/31 01:03:47;;;;;;;;;23.00;15.50;;;;;10.81;98.69;101252.22;5054922;28;45355;-69
2021/12/31 01:06:13;;;;;;;;;16.50;15.25;;;;;10.80;98.46;101253.97;5055895;28;45729;-70
2021/12/31 01:08:39;;;;;;;;;22.25;17.75;;;;;10.81;98.51;101252.22;5056327;28;45542;-71
2021/12/31 01:11:05;;;;;;;;;19.50;16.50;;;;;10.73;98.73;101235.81;5059536;28;45386;-75
2021/12/31 01:13:47;;;;;;;;;19.75;16.00;;;;;10.77;98.71;101238.28;5044444;28;45225;-76
2021/12/31 01:16:12;;;;;;;;;30.00;23.25;;;;;10.77;98.88;101242.69;5061561;28;45486;-75
2021/12/31 01:21:27;;;;;;;;;18.50;17.50;;;;;10.72;98.25;101228.81;5032229;28;45505;-76
2021/12/31 01:23:52;;;;;;;;;19.50;17.00;;;;;10.70;98.54;101230.63;5063851;28;45228;-76
2021/12/31 01:26:18;;;;;;;;;17.25;17.00;;;;;10.70;98.50;101235.91;5061092;28;46417;-72
2021/12/31 01:28:44;;;;;;;;;19.25;17.50;;;;;10.68;98.25;101243.81;5061168;28;45244;-71
2021/12/31 01:31:10;;;;;;;;;18.50;16.00;;;;;10.68;98.15;101235.94;5060909;28;45300;-74
2021/12/31 01:33:36;;;;;;;;;15.25;13.00;;;;;10.63;98.07;101212.41;5060833;28;45659;-74
2021/12/31 01:36:01;;;;;;;;;15.25;15.00;;;;;10.62;98.02;101217.69;5060216;28;46046;-69
2021/12/31 01:38:28;;;;;;;;;19.75;19.00;;;;;10.65;98.18;101228.13;5043289;28;45841;-71
2021/12/31 01:40:54;;;;;;;;;14.00;13.00;;;;;10.56;98.35;101218.72;5062932;28;45419;-68
2021/12/31 01:43:20;;;;;;;;;16.50;16.00;;;;;10.62;98.14;101233.50;5062344;28;45519;-71
2021/12/31 01:45:54;;;;;;;;;18.25;15.25;;;;;10.58;97.93;101245.84;5062378;28;46126;-69
2021/12/31 01:48:25;;;;;;;;;18.00;14.75;;;;;10.56;97.99;101252.94;5060168;28;45519;-68
2021/12/31 01:50:50;;;;;;;;;16.00;13.50;;;;;10.54;97.87;101256.53;5060119;28;45328;-69
2021/12/31 01:53:17;;;;;;;;;21.25;20.50;;;;;10.53;97.84;101260.91;5060466;28;45428;-74
2021/12/31 01:55:43;;;;;;;;;17.50;16.00;;;;;10.50;98.28;101264.50;5060186;28;45367;-69
2021/12/31 01:58:09;;;;;;;;;16.00;15.75;;;;;10.47;98.17;101263.72;5041218;28;45599;-73
2021/12/31 02:00:37;;;;;;;;;17.25;16.00;;;;;10.48;97.94;101260.19;5038542;28;45531;-70
2021/12/31 02:03:04;;;;;;;;;17.00;14.75;;;;;10.47;97.98;101261.09;5042309;28;45418;-70
2021/12/31 02:05:30;;;;;;;;;20.25;18.75;;;;;10.43;98.18;101257.69;5043208;28;45677;-74
2021/12/31 02:07:55;;;;;;;;;20.75;15.50;;;;;10.40;98.16;101255.16;5042423;28;45497;-69
2021/12/31 02:10:21;;;;;;;;;16.50;14.50;;;;;10.41;98.45;101250.75;5042129;28;45415;-68
2021/12/31 02:12:48;;;;;;;;;14.75;14.00;;;;;10.38;98.24;101256.94;5041153;28;45573;-67
2021/12/31 02:15:16;;;;;;;;;21.25;15.50;;;;;10.36;98.25;101246.44;5040261;28;46893;-67
2021/12/31 02:17:41;;;;;;;;;17.50;16.00;;;;;10.32;98.21;101241.34;5039391;28;45312;-69
2021/12/31 02:20:07;;;;;;;;;25.25;18.00;;;;;10.32;98.22;101244.81;5039545;28;45280;-66
2021/12/31 02:22:43;;;;;;;;;17.25;14.75;;;;;10.30;98.24;101232.63;5039349;28;45673;-68
2021/12/31 02:25:09;;;;;;;;;17.25;13.25;;;;;10.30;98.01;101236.13;5039014;28;47132;-66
2021/12/31 02:27:37;;;;;;;;;17.75;16.00;;;;;10.27;97.69;101230.09;5037502;28;45446;-58
2021/12/31 02:30:04;;;;;;;;;16.75;14.75;;;;;10.27;98.21;101237.97;5039403;28;45422;-63
2021/12/31 02:32:29;;;;;;;;;23.00;19.75;;;;;10.23;98.36;101234.56;5039085;28;45298;-75
2021/12/31 02:34:55;;;;;;;;;17.75;16.50;;;;;10.22;98.11;101235.47;5039601;28;45277;-75
2021/12/31 02:37:20;;;;;;;;;14.50;14.25;;;;;10.23;98.08;101235.44;5039143;28;45355;-74
2021/12/31 02:39:46;;;;;;;;;22.75;19.00;;;;;10.21;98.07;101231.13;5039806;28;45177;-73
2021/12/31 02:42:12;;;;;;;;;21.25;15.25;;;;;10.21;97.99;101225.84;5043605;28;45227;-72
2021/12/31 02:44:37;;;;;;;;;14.75;12.75;;;;;10.14;97.65;101217.31;5043176;28;46074;-74
2021/12/31 02:47:05;;;;;;;;;17.50;15.25;;;;;10.16;97.63;101220.75;5042184;28;45239;-73
2021/12/31 02:49:36;;;;;;;;;18.50;14.25;;;;;10.16;97.52;101217.25;5042879;28;45566;-73
2021/12/31 02:52:04;;;;;;;;;16.75;14.25;;;;;10.14;97.50;101216.41;5041100;28;45334;-75
2021/12/31 02:54:32;;;;;;;;;15.00;15.00;;;;;10.09;97.56;101200.78;5041543;28;46252;-73
2021/12/31 02:56:57;;;;;;;;;15.00;13.75;;;;;10.09;97.84;101199.00;5041576;28;45315;-76
2021/12/31 02:59:23;;;;;;;;;18.00;15.25;;;;;10.06;97.30;101196.47;5040799;28;45323;-70
2021/12/31 03:01:49;;;;;;;;;16.75;15.75;;;;;10.06;97.32;101196.47;5039203;28;45319;-66
2021/12/31 03:04:17;;;;;;;;;23.00;22.25;;;;;10.03;97.45;101193.94;5038449;28;46073;-70
2021/12/31 03:06:43;;;;;;;;;18.75;17.25;;;;;10.03;97.80;101191.31;5038931;28;45578;-58
2021/12/31 03:09:11;;;;;;;;;26.25;21.50;;;;;10.02;97.58;101191.31;5021682;28;45306;-75
2021/12/31 03:11:37;;;;;;;;;20.75;17.75;;;;;10.01;97.48;101185.22;5039172;28;45414;-74
2021/12/31 03:14:06;;;;;;;;;19.00;15.50;;;;;10.00;97.52;101198.41;5038982;28;45407;-75
2021/12/31 03:16:32;;;;;;;;;15.00;13.75;;;;;9.98;97.61;101195.81;5041292;28;44681;-69
2021/12/31 03:18:58;;;;;;;;;10.75;9.00;;;;;9.96;97.28;101194.13;5040174;28;45245;-75
2021/12/31 03:21:23;;;;;;;;;19.00;14.00;;;;;9.93;97.36;101203.81;5039249;28;45316;-60
2021/12/31 03:23:52;;;;;;;;;18.50;15.00;;;;;9.94;97.62;101217.84;5038770;28;46387;-74
2021/12/31 03:26:17;;;;;;;;;29.75;23.25;;;;;9.91;97.22;101229.28;5038677;28;45370;-75
2021/12/31 03:28:43;;;;;;;;;22.25;21.00;;;;;9.89;97.49;101227.63;5038898;28;45400;-74
2021/12/31 03:31:08;;;;;;;;;20.00;19.50;;;;;9.88;97.57;101231.16;5038964;28;45248;-71
2021/12/31 03:33:34;;;;;;;;;19.25;18.50;;;;;9.88;97.44;101247.75;5037749;28;45509;-71
2021/12/31 03:35:59;;;;;;;;;18.00;14.75;;;;;9.83;97.53;101254.91;5038539;28;45386;-73
2021/12/31 03:38:24;;;;;;;;;18.50;17.00;;;;;9.85;97.19;101271.50;5038088;28;45395;-70
2021/12/31 03:40:50;;;;;;;;;17.00;15.00;;;;;9.81;97.40;101272.47;5041218;28;45347;-69
2021/12/31 03:43:15;;;;;;;;;26.75;21.00;;;;;9.83;97.74;101269.81;5038339;28;45273;-66
2021/12/31 03:45:41;;;;;;;;;18.25;17.00;;;;;9.83;97.51;101256.69;5038548;28;45419;-68
2021/12/31 03:48:07;;;;;;;;;14.25;12.75;;;;;9.82;97.53;101242.66;5037790;28;45239;-63
2021/12/31 03:50:32;;;;;;;;;16.50;15.75;;;;;9.81;97.40;101229.59;5037523;28;45250;-60
2021/12/31 03:52:58;;;;;;;;;14.75;12.75;;;;;9.82;96.96;101224.28;5037377;28;45934;-60
2021/12/31 03:55:34;;;;;;;;;13.50;12.00;;;;;9.83;97.03;101227.78;5070978;28;45381;-68
2021/12/31 03:58:00;;;;;;;;;14.50;13.25;;;;;9.82;96.93;101226.06;5053312;28;45351;-66
2021/12/31 04:00:28;;;;;;;;;13.75;12.00;;;;;9.78;97.29;101214.75;5053439;28;45343;-61
2021/12/31 04:02:55;;;;;;;;;13.00;8.50;;;;;9.81;96.87;101212.03;5053150;28;45601;-62
2021/12/31 04:05:22;;;;;;;;;10.25;10.25;;;;;9.82;97.07;101197.16;5052280;28;46871;-67
2021/12/31 04:07:48;;;;;;;;;11.25;11.25;;;;;9.82;96.46;101190.13;5052616;28;45407;-61
2021/12/31 04:10:13;;;;;;;;;9.75;9.00;;;;;9.78;96.88;101185.84;5053170;28;45441;-59
2021/12/31 04:12:38;;;;;;;;;12.00;11.00;;;;;9.82;96.62;101191.91;5052751;28;45636;-57
2021/12/31 04:15:04;;;;;;;;;10.00;9.00;;;;;9.74;96.42;101166.69;5052188;28;46551;-59
2021/12/31 04:17:29;;;;;;;;;9.25;8.75;;;;;9.84;96.36;101179.59;5068137;28;45342;-60
2021/12/31 04:19:56;;;;;;;;;10.25;9.00;;;;;9.84;96.24;101183.06;5053052;28;45362;-66
2021/12/31 04:22:24;;;;;;;;;12.75;11.50;;;;;9.76;96.43;101193.78;5053740;28;45529;-62
2021/12/31 04:27:15;;;;;;;;;13.75;10.75;;;;;9.80;96.29;101176.16;5054796;28;45362;-59
2021/12/31 04:29:40;;;;;;;;;10.00;10.00;;;;;9.86;95.68;101190.91;5053590;28;45187;-60
2021/12/31 04:32:06;;;;;;;;;11.00;9.25;;;;;9.86;95.94;101186.50;5053634;28;45238;-66
2021/12/31 04:34:32;;;;;;;;;12.00;11.25;;;;;9.77;95.53;101174.50;5054440;28;45383;-74
2021/12/31 04:36:58;;;;;;;;;10.25;8.75;;;;;9.84;95.81;101183.06;5055083;28;45426;-76
2021/12/31 04:39:24;;;;;;;;;8.50;8.00;;;;;9.83;95.78;101176.06;5058359;28;45341;-67
2021/12/31 04:41:49;;;;;;;;;7.75;5.00;;;;;9.82;95.49;101170.88;5058342;28;45406;-68
2021/12/31 04:44:15;;;;;;;;;10.25;8.75;;;;;9.82;95.22;101173.50;5055799;28;45815;-64
2021/12/31 04:46:41;;;;;;;;;8.75;8.50;;;;;9.84;95.61;101169.06;5055166;28;44780;-68
2021/12/31 04:49:06;;;;;;;;;9.25;9.00;;;;;9.82;95.75;101160.38;5063149;28;45293;-64
2021/12/31 04:51:32;;;;;;;;;9.75;9.50;;;;;9.80;95.07;101157.75;5054130;28;45182;-70
2021/12/31 04:53:57;;;;;;;;;12.50;10.00;;;;;9.78;95.20;101170.09;5059486;28;45399;-69
2021/12/31 04:56:23;;;;;;;;;10.00;9.75;;;;;9.80;95.67;101178.78;5054580;28;45261;-66
2021/12/31 04:58:48;;;;;;;;;11.00;8.75;;;;;9.80;95.40;101178.78;5073506;28;45322;-59
2021/12/31 05:01:13;;;;;;;;;10.75;10.75;;;;;9.77;95.34;101186.75;5073823;28;45189;-65
2021/12/31 05:03:40;;;;;;;;;9.75;7.00;;;;;9.76;95.19;101185.03;5072381;28;45987;-69
2021/12/31 05:06:05;;;;;;;;;11.50;10.25;;;;;9.75;95.28;101183.31;5063883;28;45296;-73
2021/12/31 05:08:31;;;;;;;;;13.00;11.00;;;;;9.75;95.16;101185.94;5060336;28;45374;-66
2021/12/31 05:10:56;;;;;;;;;12.00;10.00;;;;;9.70;95.18;101177.31;5060156;28;45428;-72
2021/12/31 05:13:22;;;;;;;;;16.00;14.00;;;;;9.71;95.36;101187.78;5063278;28;45959;-69
2021/12/31 05:15:50;;;;;;;;;17.25;13.75;;;;;9.65;95.61;101188.81;5060357;28;45237;-74
2021/12/31 05:18:16;;;;;;;;;14.25;13.00;;;;;9.63;95.78;101180.09;5041521;28;45349;-75
2021/12/31 05:20:42;;;;;;;;;12.00;9.75;;;;;9.60;95.46;101172.31;5058924;28;45548;-74
2021/12/31 05:23:07;;;;;;;;;12.00;11.50;;;;;9.63;95.91;101180.09;5040951;28;48417;-73
2021/12/31 05:25:33;;;;;;;;;12.75;10.50;;;;;9.54;95.62;101163.72;5059403;28;45363;-67
2021/12/31 05:27:58;;;;;;;;;14.25;12.00;;;;;9.64;95.52;101173.09;5060911;28;45307;-65
2021/12/31 05:30:25;;;;;;;;;15.50;10.50;;;;;9.62;95.63;101172.28;5061394;28;45315;-73
2021/12/31 05:32:50;;;;;;;;;14.00;13.00;;;;;9.59;95.39;101175.00;5056407;28;45546;-66
2021/12/31 05:35:16;;;;;;;;;15.25;13.00;;;;;9.60;95.75;101176.72;5046745;28;45523;-72
2021/12/31 05:37:41;;;;;;;;;16.25;13.75;;;;;9.60;95.65;101155.72;5037671;28;45462;-64
2021/12/31 05:40:07;;;;;;;;;13.50;10.75;;;;;9.59;95.65;101164.50;5055909;28;45365;-74
2021/12/31 05:42:32;;;;;;;;;14.00;13.25;;;;;9.58;95.63;101154.88;5057039;28;46299;-67
2021/12/31 05:44:58;;;;;;;;;13.25;13.00;;;;;9.55;95.97;101140.06;5056964;28;45391;-62
2021/12/31 05:47:23;;;;;;;;;13.25;12.50;;;;;9.58;95.83;101144.38;5057171;28;45319;-73
2021/12/31 05:49:49;;;;;;;;;11.75;10.00;;;;;9.52;95.32;101140.13;5041591;28;45664;-71
2021/12/31 05:52:15;;;;;;;;;12.75;12.75;;;;;9.55;95.86;101149.72;5039608;28;46311;-72
2021/12/31 05:54:40;;;;;;;;;0.00;0.00;;;;;9.56;95.85;101140.94;5036695;28;45452;-72
2021/12/31 05:57:06;;;;;;;;;12.00;10.00;;;;;9.55;95.72;101120.81;5036910;28;45468;-75
2021/12/31 05:59:31;;;;;;;;;11.75;11.00;;;;;9.52;95.59;101115.63;5039536;28;45198;-73
2021/12/31 06:01:56;;;;;;;;;14.00;12.25;;;;;9.53;95.64;101133.09;5039510;28;45322;-69
2021/12/31 06:04:22;;;;;;;;;9.50;8.00;;;;;9.52;95.69;101145.38;5035371;28;45339;-71
2021/12/31 06:06:48;;;;;;;;;11.25;10.00;;;;;9.51;95.70;101143.66;5035527;28;45423;-67
2021/12/31 06:09:14;;;;;;;;;11.50;11.25;;;;;9.52;95.62;101155.91;5036108;28;45361;-75
2021/12/31 06:11:40;;;;;;;;;13.25;11.00;;;;;9.53;95.82;101159.38;5037279;28;46012;-75
2021/12/31 06:14:08;;;;;;;;;13.25;12.75;;;;;9.52;95.71;101157.66;5039330;28;45222;-70
2021/12/31 06:16:40;;;;;;;;;13.25;10.00;;;;;9.53;95.57;101169.88;5037709;28;45351;-71
2021/12/31 06:19:07;;;;;;;;;22.50;18.75;;;;;9.49;95.50;101169.09;5040000;28;45368;-72
2021/12/31 06:21:34;;;;;;;;;10.00;10.00;;;;;9.52;95.53;101174.28;5035898;28;46229;-60
2021/12/31 06:24:00;;;;;;;;;16.00;12.00;;;;;9.48;95.70;101167.38;5036084;28;45454;-58
2021/12/31 06:26:26;;;;;;;;;12.00;12.00;;;;;9.55;95.18;101171.56;5017207;28;45408;-68
2021/12/31 06:28:51;;;;;;;;;12.75;9.00;;;;;9.57;95.24;101163.66;5035330;28;45328;-57
2021/12/31 06:31:17;;;;;;;;;14.25;10.75;;;;;9.54;96.39;101150.59;5034946;28;46375;-61
2021/12/31 06:33:42;;;;;;;;;14.75;11.00;;;;;9.62;95.40;101165.25;5036021;28;45461;-58
2021/12/31 06:36:07;;;;;;;;;13.50;13.50;;;;;9.64;95.62;101163.44;5038157;28;45321;-72
2021/12/31 06:38:33;;;;;;;;;12.00;10.25;;;;;9.68;95.58;101171.25;5042332;28;45205;-72
2021/12/31 06:40:58;;;;;;;;;11.00;9.50;;;;;9.67;95.06;101180.03;5042764;28;46147;-71
2021/12/31 06:43:24;;;;;;;;;11.50;9.75;;;;;9.63;94.92;101155.63;5036598;28;45371;-61
2021/12/31 06:45:49;;;;;;;;;11.25;11.25;;;;;9.68;94.61;101158.97;5038756;28;45421;-75
2021/12/31 06:48:14;;;;;;;;;12.50;10.50;;;;;9.69;94.73;101157.19;5037536;28;45518;-74
2021/12/31 06:50:40;;;;;;;;;11.00;10.00;;;;;9.65;94.48;101162.53;5036250;28;46143;-68
2021/12/31 06:53:08;;;;;;;;;10.75;10.25;;;;;9.65;94.61;101167.78;5036150;28;45380;-73
2021/12/31 06:55:33;;;;;;;;;11.50;10.00;;;;;9.62;94.45;101188.88;5036431;28;45329;-72
2021/12/31 06:57:59;;;;;;;;;14.00;11.00;;;;;9.59;94.25;101196.00;5036289;28;45485;-61
2021/12/31 07:00:25;;;;;;;;;17.25;14.50;;;;;9.57;94.46;101187.31;5035839;28;46128;-64
2021/12/31 07:02:50;;;;;;;;;12.50;10.00;;;;;9.52;94.66;101170.78;5036427;28;45446;-72
2021/12/31 07:05:17;;;;;;;;;10.00;10.00;;;;;9.49;94.35;101150.72;5035722;28;45298;-76
2021/12/31 07:07:42;;;;;;;;;15.00;11.00;;;;;9.47;94.89;101163.03;5038029;28;45237;-75
2021/12/31 07:10:08;;;;;;;;;12.00;10.25;;;;;9.42;94.67;101183.31;5036574;28;45544;-77
2021/12/31 07:12:34;;;;;;;;;18.00;14.25;;;;;9.41;94.67;101195.56;5036275;28;45391;-74
2021/12/31 07:14:59;;;;;;;;;11.00;11.00;;;;;9.39;94.95;101194.72;5036220;28;45182;-73
2021/12/31 07:17:28;;;;;;;;;19.00;18.50;;;;;9.39;95.51;101191.25;5018842;28;45839;-63
2021/12/31 07:19:53;;;;;;;;;12.00;10.00;;;;;9.38;94.84;101193.00;5018619;28;47098;-75
2021/12/31 07:22:19;;;;;;;;;13.00;12.50;;;;;9.39;94.99;101186.00;5034442;28;45248;-60
2021/12/31 07:24:44;;;;;;;;;15.50;15.50;;;;;9.40;95.25;101201.72;5036111;28;45436;-65
2021/12/31 07:27:09;;;;;;;;;17.25;14.00;;;;;9.41;95.23;101192.94;5036061;28;45308;-67
2021/12/31 07:29:35;;;;;;;;;15.50;14.75;;;;;9.41;95.14;101194.72;5035433;28;46009;-71
2021/12/31 07:32:00;;;;;;;;;13.00;10.50;;;;;9.39;95.50;101213.13;5038185;28;45499;-67
2021/12/31 07:34:26;;;;;;;;;15.50;13.00;;;;;9.43;95.28;101225.25;5038373;28;45312;-62
2021/12/31 07:36:51;;;;;;;;;16.75;12.00;;;;;9.43;95.38;101227.03;5039600;28;45214;-63
2021/12/31 07:39:20;;;;;;;;;13.25;12.50;;;;;9.42;95.45;101215.66;5036258;28;45454;-75
2021/12/31 07:41:45;;;;;;;;;16.50;12.25;;;;;9.48;95.11;101227.78;5035818;28;45262;-75
2021/12/31 07:44:11;;;;;;;;;16.00;14.00;;;;;9.53;95.37;101211.91;5035815;28;45340;-74
2021/12/31 07:46:36;;;;;;;;;15.00;13.00;;;;;9.53;94.97;101202.25;5018072;28;45530;-74
2021/12/31 07:49:01;;;;;;;;;15.00;11.00;;;;;9.53;95.00;101199.66;5035325;28;45529;-72
2021/12/31 07:51:27;;;;;;;;;10.00;9.25;;;;;9.54;94.68;101182.97;5035183;28;45481;-57
2021/12/31 07:53:52;;;;;;;;;14.00;13.25;;;;;9.57;95.17;101193.41;5035680;28;45434;-71
2021/12/31 07:56:19;;;;;;;;;17.00;14.50;;;;;9.59;94.88;101188.13;5035638;28;45440;-65
2021/12/31 07:58:46;;;;;;;;;14.75;13.50;;;;;9.54;94.82;101190.84;5018980;28;45502;-61
2021/12/31 08:01:11;;;;;;;;;12.00;12.00;;;;;9.56;94.72;101201.34;5035044;28;45387;-59
2021/12/31 08:03:37;;;;;;;;;13.75;10.00;;;;;9.57;94.52;101198.66;5035677;28;45827;-62
2021/12/31 08:06:02;;;;;;;;;14.50;13.50;;;;;9.57;94.39;101192.56;5035385;28;45390;-64
2021/12/31 08:08:27;;;;;;;;;15.50;13.50;;;;;9.63;94.19;101197.66;5035265;28;46010;-59
2021/12/31 08:10:53;;;;;;;;;14.75;12.50;;;;;9.67;94.31;101201.91;5035512;28;45237;-69
2021/12/31 08:13:18;;;;;;;;;13.50;12.75;;;;;9.71;94.00;101208.81;5035265;28;45325;-71
2021/12/31 08:15:43;;;;;;;;;16.75;16.00;;;;;9.78;94.13;101213.00;5035695;28;45596;-65
2021/12/31 08:18:09;;;;;;;;;14.75;12.75;;;;;9.84;93.67;101225.09;5036793;28;46288;-61
2021/12/31 08:20:36;;;;;;;;;22.00;14.00;;;;;9.90;93.83;101231.97;5035772;28;45286;-67
2021/12/31 08:23:06;;;;;;;;;17.00;14.50;;;;;9.97;93.36;101235.28;5034829;28;45471;-70
2021/12/31 08:25:32;;;;;;;;;18.50;13.75;;;;;10.04;93.33;101249.97;5034175;28;45606;-60
2021/12/31 08:27:57;;;;;;;;;17.00;14.25;;;;;10.07;93.20;101247.25;5034930;28;45256;-62
2021/12/31 08:30:23;;;;;;;;;14.50;14.50;;;;;10.12;93.11;101253.28;5034734;28;45349;-68
2021/12/31 08:32:48;;;;;;;;;17.75;14.00;;;;;10.11;92.84;101233.16;5033579;28;45355;-69
2021/12/31 08:35:13;;;;;;;;;15.25;14.25;;;;;10.22;93.04;101232.84;5038008;28;45441;-71
2021/12/31 08:37:38;;;;;;;;;14.75;13.00;;;;;10.23;92.23;101224.03;5058006;28;45996;-73
2021/12/31 08:40:04;;;;;;;;;15.50;15.00;;;;;10.23;92.13;101217.03;5059785;28;45351;-65
2021/12/31 08:42:30;;;;;;;;;16.50;14.00;;;;;10.23;92.43;101227.56;5064350;28;45337;-67
2021/12/31 08:44:56;;;;;;;;;13.25;12.25;;;;;10.18;92.11;101234.72;5043923;28;45290;-69
2021/12/31 08:47:21;;;;;;;;;13.50;13.25;;;;;10.22;91.56;101238.09;5058024;28;46081;-70
2021/12/31 08:49:47;;;;;;;;;17.25;15.50;;;;;10.24;91.92;101231.03;5037301;28;45417;-67
2021/12/31 08:52:12;;;;;;;;;15.00;14.00;;;;;10.22;91.81;101227.59;5041419;28;45382;-69
2021/12/31 08:54:38;;;;;;;;;15.00;13.00;;;;;10.35;91.75;101242.09;5039311;28;45397;-69
2021/12/31 08:57:03;;;;;;;;;17.75;14.00;;;;;10.45;92.11;101239.22;5057745;28;45454;-68
2021/12/31 08:59:29;;;;;;;;;15.00;13.75;;;;;10.33;91.48;101201.84;5039772;28;45906;-64
2021/12/31 09:01:54;;;;;;;;;14.50;13.00;;;;;10.59;91.17;101242.31;5058509;28;45668;-63
2021/12/31 09:04:20;;;;;;;;;18.25;13.25;;;;;10.63;90.72;101249.25;5057442;28;45375;-72
2021/12/31 09:06:45;;;;;;;;;16.00;14.00;;;;;10.70;90.85;101246.44;5057120;28;46201;-73
2021/12/31 09:09:10;;;;;;;;;12.75;11.00;;;;;10.73;90.57;101241.06;5056887;28;45341;-67
2021/12/31 09:11:36;;;;;;;;;24.25;19.50;;;;;10.74;90.39;101234.91;5057564;28;45346;-72
2021/12/31 09:14:02;;;;;;;;;17.50;15.00;;;;;10.82;90.56;101260.06;5039182;28;45511;-73
2021/12/31 09:16:27;;;;;;;;;14.25;12.50;;;;;10.81;89.85;101284.66;5047496;28;45957;-72
2021/12/31 09:18:53;;;;;;;;;15.00;15.00;;;;;10.80;89.24;101280.28;5056161;28;45538;-66
2021/12/31 09:21:20;;;;;;;;;15.50;12.50;;;;;10.80;89.77;101284.72;5056063;28;45315;-70
2021/12/31 09:23:46;;;;;;;;;18.00;13.75;;;;;10.79;89.72;101275.09;5055501;28;45625;-62
2021/12/31 09:26:12;;;;;;;;;15.50;13.50;;;;;10.75;89.55;101253.25;5052669;28;46332;-70
2021/12/31 09:28:37;;;;;;;;;21.00;17.00;;;;;10.76;90.06;101243.59;5053408;28;45490;-69
2021/12/31 09:31:05;;;;;;;;;16.75;12.50;;;;;10.74;89.69;101266.47;5054995;28;45553;-68
2021/12/31 09:33:31;;;;;;;;;16.00;13.00;;;;;10.73;89.93;101280.53;5055887;28;45506;-63
2021/12/31 09:35:56;;;;;;;;;20.25;19.25;;;;;10.71;90.07;101271.84;5052072;28;46216;-71
2021/12/31 09:38:22;;;;;;;;;18.25;15.75;;;;;10.70;89.48;101260.44;5063786;28;45335;-69
2021/12/31 09:40:47;;;;;;;;;18.00;17.00;;;;;10.67;90.18;101268.41;5055831;28;45396;-63
2021/12/31 09:43:13;;;;;;;;;17.75;17.00;;;;;10.68;90.13;101258.78;5036576;28;45554;-65
2021/12/31 09:45:44;;;;;;;;;28.25;25.00;;;;;10.66;89.97;101271.94;5057172;28;45339;-70
2021/12/31 09:48:22;;;;;;;;;24.00;23.00;;;;;10.66;89.78;101283.34;5057393;28;45477;-70
2021/12/31 09:50:54;;;;;;;;;20.00;17.00;;;;;10.61;90.27;101295.78;5057668;28;45391;-69
2021/12/31 09:53:20;;;;;;;;;16.75;15.25;;;;;10.64;89.66;101305.34;5053432;28;45182;-66
2021/12/31 09:55:54;;;;;;;;;19.50;19.25;;;;;10.64;89.65;101311.47;5057634;28;46301;-67
2021/12/31 09:58:22;;;;;;;;;16.50;15.50;;;;;10.64;90.19;101306.22;5062487;28;45379;-64
2021/12/31 10:00:50;;;;;;;;;29.00;22.25;;;;;10.66;90.77;101327.22;5063190;28;45630;-66
2021/12/31 10:03:19;;;;;;;;;21.25;18.75;;;;;10.66;90.17;101325.44;5055471;28;45501;-65
2021/12/31 10:05:48;;;;;;;;;18.75;15.25;;;;;10.69;90.13;101331.53;5055972;28;45501;-64
2021/12/31 10:08:22;;;;;;;;;19.25;17.25;;;;;10.70;90.54;101320.09;5056102;28;45457;-66
2021/12/31 10:11:17;;;;;;;;;22.00;20.00;;;;;10.72;90.18;101324.41;5039245;28;45481;-65
2021/12/31 10:13:47;;;;;;;;;20.25;16.75;;;;;10.77;90.44;101313.75;5056038;28;45477;-63
2021/12/31 10:16:23;;;;;;;;;16.00;15.00;;;;;10.82;90.54;101330.28;5055804;28;45448;-65
2021/12/31 10:18:49;;;;;;;;;21.25;18.50;;;;;10.85;90.18;101331.94;5033109;28;45735;-62
2021/12/31 10:21:19;;;;;;;;;22.50;19.25;;;;;10.93;90.42;101327.31;5054368;28;45520;-68
2021/12/31 10:23:46;;;;;;;;;18.25;17.00;;;;;10.99;89.94;101319.22;5056500;28;45380;-63
2021/12/31 10:26:15;;;;;;;;;19.00;19.00;;;;;11.02;90.00;101321.75;5056915;28;47309;-63
2021/12/31 10:28:59;;;;;;;;;18.50;15.00;;;;;11.10;89.51;101334.72;5060810;28;45402;-65
2021/12/31 10:31:24;;;;;;;;;21.50;20.25;;;;;11.11;89.36;101341.69;5057979;28;45445;-66
2021/12/31 10:33:51;;;;;;;;;23.00;20.50;;;;;11.16;89.00;101341.56;5059225;28;45537;-68
2021/12/31 10:36:38;;;;;;;;;16.75;16.75;;;;;11.13;89.14;101337.25;5057657;28;46423;-64
2021/12/31 10:39:25;;;;;;;;;23.00;19.25;;;;;11.24;88.74;101361.47;5058533;28;45342;-67
2021/12/31 10:42:01;;;;;;;;;18.50;16.00;;;;;11.30;89.23;101370.97;5059710;28;45478;-65
2021/12/31 10:44:52;;;;;;;;;20.25;16.75;;;;;11.37;88.33;101396.22;5057599;28;45497;-65
2021/12/31 10:47:47;;;;;;;;;22.50;18.50;;;;;11.42;88.39;101411.03;5054663;28;46303;-69
2021/12/31 10:50:19;;;;;;;;;20.75;19.25;;;;;11.47;88.39;101409.94;5054952;28;45333;-67
2021/12/31 10:52:55;;;;;;;;;21.00;18.75;;;;;11.51;88.34;101416.00;5057515;28;45276;-69
2021/12/31 10:55:29;;;;;;;;;21.25;17.25;;;;;11.57;87.76;101407.03;5057158;28;45494;-69
2021/12/31 10:57:58;;;;;;;;;20.50;19.00;;;;;11.60;87.89;101389.38;5058451;28;46045;-67
2021/12/31 11:00:27;;;;;;;;;18.50;15.75;;;;;11.71;87.98;101403.97;5058858;28;45174;-68
2021/12/31 11:02:52;;;;;;;;;17.25;15.50;;;;;11.74;87.54;101395.97;5059167;28;45363;-66
2021/12/31 11:05:21;;;;;;;;;17.75;15.00;;;;;11.82;87.80;101394.81;5022879;28;45398;-70
2021/12/31 11:07:47;;;;;;;;;19.00;15.75;;;;;11.88;87.23;101391.13;5055761;28;46917;-65
2021/12/31 11:10:15;;;;;;;;;18.00;14.25;;;;;11.96;87.08;101390.88;5055921;28;45241;-66
2021/12/31 11:12:46;;;;;;;;;13.75;13.25;;;;;12.04;87.48;101419.63;5055606;28;45407;-69
2021/12/31 11:15:13;;;;;;;;;15.00;11.75;;;;;12.10;87.48;101409.75;5055809;28;45446;-68
2021/12/31 11:17:39;;;;;;;;;13.25;11.25;;;;;12.17;87.08;101402.50;5055901;28;46279;-60
2021/12/31 11:20:06;;;;;;;;;15.75;12.75;;;;;12.18;86.41;101391.03;5055543;28;45365;-63